Time;durP1;ratioP1;P1;durP2;ratioP2;P2;SDS_P1;SDS_P2;PMS_P1;PMS_P2;Temp;Humidity;BMP_temperature;BMP_pressure;BME280_temperature;BME280_humidity;BME280_pressure;Samples;Min_cycle;Max_cycle;Signal;HPM_P1;HPM_P2
2021/07/14 00:00:09;;;;;;;19.27;9.50;;;;;;;19.05;100.00;100837.25;1706584;84;21101;-40
2021/07/14 00:02:36;;;;;;;19.52;9.45;;;;;;;19.05;100.00;100836.80;1706338;84;21518;-40
2021/07/14 00:05:07;;;;;;;12.00;8.43;;;;;;;19.03;100.00;100836.48;1706370;84;20992;-40
2021/07/14 00:07:35;;;;;;;12.55;8.95;;;;;;;18.98;100.00;100834.09;1706534;84;20945;-40
2021/07/14 00:10:05;;;;;;;13.10;9.73;;;;;;;18.91;100.00;100832.19;1706563;84;20942;-40
2021/07/14 00:12:42;;;;;;;14.30;9.50;;;;;;;18.85;100.00;100835.55;1706525;84;20973;-40
2021/07/14 00:23:15;;;;;;;22.60;11.08;;;;;;;18.70;100.00;100834.50;1706527;83;21439;-39
2021/07/14 00:25:43;;;;;;;17.70;11.00;;;;;;;18.70;100.00;100833.20;1706588;84;21918;-43
2021/07/14 00:28:10;;;;;;;28.10;10.05;;;;;;;18.67;100.00;100836.35;1706584;84;21475;-39
2021/07/14 00:30:37;;;;;;;18.52;10.60;;;;;;;18.65;100.00;100838.20;1706606;84;21483;-39
2021/07/14 00:33:04;;;;;;;30.27;10.60;;;;;;;18.61;100.00;100837.09;1706537;83;20925;-39
2021/07/14 00:35:30;;;;;;;23.67;10.00;;;;;;;18.56;100.00;100839.91;1706496;83;20925;-38
2021/07/14 00:37:59;;;;;;;15.00;8.90;;;;;;;18.51;100.00;100842.77;1706515;84;20877;-39
2021/07/14 00:40:26;;;;;;;19.62;9.35;;;;;;;18.46;100.00;100836.02;1706489;84;21481;-39
2021/07/14 00:42:53;;;;;;;12.40;9.33;;;;;;;18.38;100.00;100833.30;1706676;84;20989;-39
2021/07/14 00:45:19;;;;;;;22.22;9.80;;;;;;;18.35;100.00;100840.44;1706688;84;20901;-39
2021/07/14 00:47:49;;;;;;;14.60;10.38;;;;;;;18.32;100.00;100842.76;1708295;83;20976;-39
2021/07/14 00:50:14;;;;;;;16.32;10.60;;;;;;;18.31;100.00;100846.74;1714103;82;21134;-39
2021/07/14 00:52:41;;;;;;;19.42;10.32;;;;;;;18.28;100.00;100838.55;1714439;83;20908;-39
2021/07/14 00:55:11;;;;;;;11.53;9.73;;;;;;;18.26;100.00;100839.08;1714496;83;21019;-38
2021/07/14 00:57:38;;;;;;;17.37;10.32;;;;;;;18.25;100.00;100843.92;1686315;83;20940;-39
2021/07/14 01:00:07;;;;;;;13.22;9.63;;;;;;;18.22;100.00;100846.24;1714370;83;20976;-39
2021/07/14 01:02:33;;;;;;;18.40;10.43;;;;;;;18.22;100.00;100847.55;1714646;82;21079;-39
2021/07/14 01:05:08;;;;;;;17.02;10.30;;;;;;;18.20;100.00;100844.16;1714250;83;21541;-39
2021/07/14 01:07:43;;;;;;;18.12;11.33;;;;;;;18.19;100.00;100848.14;1705989;83;20987;-39
2021/07/14 01:10:15;;;;;;;19.45;10.55;;;;;;;18.20;100.00;100845.91;1714303;82;21047;-39
2021/07/14 01:13:10;;;;;;;11.20;9.73;;;;;;;18.24;100.00;100853.58;1714490;83;20996;-39
2021/07/14 01:15:52;;;;;;;14.43;10.18;;;;;;;18.26;100.00;100846.94;1714270;83;21135;-39
2021/07/14 01:18:52;;;;;;;15.35;10.80;;;;;;;18.29;100.00;100849.42;1712743;83;20893;-39
2021/07/14 01:21:33;;;;;;;19.23;10.23;;;;;;;18.31;100.00;100847.58;1714447;83;20896;-39
2021/07/14 01:24:23;;;;;;;12.95;9.50;;;;;;;18.32;100.00;100848.00;1714294;83;20909;-39
2021/07/14 01:27:10;;;;;;;13.58;9.53;;;;;;;18.29;100.00;100844.17;1713876;83;20913;-40
2021/07/14 01:29:55;;;;;;;19.30;9.98;;;;;;;18.23;100.00;100840.08;1714348;83;21066;-39
2021/07/14 01:32:24;;;;;;;15.53;9.63;;;;;;;18.22;100.00;100845.38;1714323;83;21034;-39
2021/07/14 01:34:54;;;;;;;22.35;10.23;;;;;;;18.20;100.00;100845.47;1686108;83;20905;-39
2021/07/14 01:37:22;;;;;;;21.55;9.68;;;;;;;18.19;100.00;100844.20;1714088;83;20929;-39
2021/07/14 01:39:50;;;;;;;13.70;9.95;;;;;;;18.16;100.00;100845.18;1714203;83;21542;-39
2021/07/14 01:42:23;;;;;;;18.82;10.13;;;;;;;18.15;100.00;100841.34;1714401;83;21155;-39
2021/07/14 01:44:51;;;;;;;15.25;9.85;;;;;;;18.13;100.00;100840.56;1686319;83;20893;-39
2021/07/14 01:47:18;;;;;;;13.43;8.88;;;;;;;18.10;100.00;100838.91;1714563;83;21588;-39
2021/07/14 01:49:45;;;;;;;13.98;8.63;;;;;;;18.07;100.00;100847.77;1719284;83;21040;-40
2021/07/14 01:52:17;;;;;;;15.38;8.33;;;;;;;18.03;100.00;100845.34;1693325;83;20889;-39
2021/07/14 01:54:44;;;;;;;20.62;8.90;;;;;;;17.98;100.00;100846.81;1719919;83;21545;-39
2021/07/14 01:57:11;;;;;;;16.57;8.55;;;;;;;17.94;100.00;100846.56;1719761;83;20893;-39
2021/07/14 01:59:39;;;;;;;15.78;8.55;;;;;;;17.92;100.00;100847.09;1720175;82;21404;-39
2021/07/14 02:02:07;;;;;;;16.02;8.78;;;;;;;17.90;100.00;100848.45;1719628;83;21000;-39
2021/07/14 02:04:34;;;;;;;24.52;9.93;;;;;;;17.88;100.00;100852.06;1719926;83;21004;-39
2021/07/14 02:07:06;;;;;;;13.00;9.20;;;;;;;17.84;100.00;100853.12;1720040;83;21801;-40
2021/07/14 02:09:35;;;;;;;16.35;9.33;;;;;;;17.81;100.00;100856.27;1720033;83;20979;-40
2021/07/14 02:12:06;;;;;;;14.70;9.35;;;;;;;17.80;100.00;100860.24;1719926;83;21514;-40
2021/07/14 02:14:39;;;;;;;16.87;9.38;;;;;;;17.79;100.00;100864.61;1719917;83;20936;-40
2021/07/14 02:17:12;;;;;;;15.13;8.98;;;;;;;17.78;100.00;100865.53;1719823;83;20893;-38
2021/07/14 02:19:39;;;;;;;17.05;7.95;;;;;;;17.80;100.00;100859.77;1719655;82;21156;-39
2021/07/14 02:22:05;;;;;;;15.72;8.85;;;;;;;17.78;100.00;100859.45;1719957;83;20932;-39
2021/07/14 02:24:34;;;;;;;17.30;8.78;;;;;;;17.78;100.00;100865.53;1719957;83;21020;-38
2021/07/14 02:27:09;;;;;;;16.97;8.05;;;;;;;17.76;100.00;100866.05;1719771;83;21513;-39
2021/07/14 02:29:37;;;;;;;18.17;8.10;;;;;;;17.76;100.00;100863.44;1719906;82;20944;-39
2021/07/14 02:32:06;;;;;;;19.57;8.83;;;;;;;17.79;100.00;100869.02;1719938;83;21102;-39
2021/07/14 02:34:32;;;;;;;14.70;8.38;;;;;;;17.79;100.00;100865.92;1719751;83;20967;-39
2021/07/14 02:37:01;;;;;;;13.03;8.05;;;;;;;17.84;100.00;100863.59;1719980;83;20987;-39
2021/07/14 02:39:27;;;;;;;14.73;7.58;;;;;;;17.88;100.00;100857.30;1719812;83;21525;-38
2021/07/14 02:42:03;;;;;;;16.62;8.55;;;;;;;17.89;100.00;100863.77;1719876;83;20936;-39
2021/07/14 02:44:28;;;;;;;13.35;7.35;;;;;;;17.90;100.00;100864.16;1719719;83;21779;-39
2021/07/14 02:46:56;;;;;;;8.33;7.35;;;;;;;17.90;100.00;100860.23;1719973;83;21003;-39
2021/07/14 02:49:27;;;;;;;20.43;8.88;;;;;;;17.91;100.00;100868.48;1711133;83;21032;-40
2021/07/14 02:51:54;;;;;;;14.47;7.58;;;;;;;17.93;100.00;100865.80;1706271;84;21577;-39
2021/07/14 02:54:25;;;;;;;18.98;7.12;;;;;;;17.93;100.00;100864.02;1706483;84;20985;-39
2021/07/14 02:57:02;;;;;;;12.88;7.97;;;;;;;17.95;100.00;100866.59;1706456;84;21092;-39
2021/07/14 02:59:33;;;;;;;10.43;7.40;;;;;;;17.94;100.00;100863.58;1706109;84;20890;-39
2021/07/14 03:02:00;;;;;;;13.62;7.95;;;;;;;17.92;100.00;100869.34;1706430;84;21445;-39
2021/07/14 03:04:35;;;;;;;18.30;7.08;;;;;;;17.92;100.00;100871.48;1706298;82;20953;-39
2021/07/14 03:07:07;;;;;;;14.33;7.15;;;;;;;17.91;100.00;100872.88;1705613;84;20989;-39
2021/07/14 03:09:39;;;;;;;11.53;6.72;;;;;;;17.92;100.00;100871.96;1686664;84;22903;-39
2021/07/14 03:12:13;;;;;;;13.68;7.20;;;;;;;17.93;100.00;100870.57;1706455;84;21356;-39
2021/07/14 03:14:45;;;;;;;14.07;6.83;;;;;;;17.97;100.00;100875.23;1706604;84;20981;-39
2021/07/14 03:17:14;;;;;;;10.35;7.00;;;;;;;18.02;100.00;100882.93;1706289;84;21229;-39
2021/07/14 03:19:43;;;;;;;10.32;6.58;;;;;;;18.06;100.00;100880.13;1706638;84;20988;-39
2021/07/14 03:22:09;;;;;;;14.63;6.25;;;;;;;18.14;100.00;100888.09;1706483;83;21168;-39
2021/07/14 03:24:36;;;;;;;14.65;7.05;;;;;;;18.17;100.00;100886.17;1706536;84;20988;-39
2021/07/14 03:27:05;;;;;;;15.40;7.10;;;;;;;18.24;100.00;100893.31;1706535;84;21570;-38
2021/07/14 03:29:32;;;;;;;17.40;6.95;;;;;;;18.30;100.00;100893.04;1686368;84;20956;-38
2021/07/14 03:32:01;;;;;;;14.40;6.22;;;;;;;18.37;100.00;100891.00;1686217;84;20928;-38
2021/07/14 03:34:31;;;;;;;13.65;6.30;;;;;;;18.46;100.00;100893.69;1706459;84;21158;-39
2021/07/14 03:37:03;;;;;;;17.23;6.75;;;;;;;18.54;100.00;100895.48;1706428;84;20956;-39
2021/07/14 03:39:27;;;;;;;10.18;5.83;;;;;;;18.64;100.00;100892.86;1686889;83;20941;-39
2021/07/14 03:41:53;;;;;;;18.65;6.17;;;;;;;18.75;100.00;100888.89;1686486;84;20996;-39
2021/07/14 03:44:19;;;;;;;11.40;6.28;;;;;;;18.87;100.00;100892.71;1706475;83;21005;-39
2021/07/14 03:46:47;;;;;;;11.68;6.00;;;;;;;18.99;100.00;100892.63;1686624;84;21503;-39
2021/07/14 03:49:14;;;;;;;16.07;6.10;;;;;;;19.13;100.00;100894.16;1666054;83;21506;-39
2021/07/14 03:51:42;;;;;;;12.03;5.70;;;;;;;19.30;100.00;100899.04;1716656;83;21533;-39
2021/07/14 03:54:11;;;;;;;11.15;5.03;;;;;;;19.51;100.00;100894.06;1716695;83;20952;-39
2021/07/14 03:56:38;;;;;;;14.15;5.22;;;;;;;19.84;100.00;100899.51;1716748;83;20940;-39
2021/07/14 03:59:05;;;;;;;14.80;4.90;;;;;;;20.19;99.74;100900.81;1716677;82;21146;-39
2021/07/14 04:01:32;;;;;;;17.25;5.25;;;;;;;20.53;97.20;100905.59;1716690;83;20857;-40
2021/07/14 04:03:58;;;;;;;9.80;4.53;;;;;;;20.84;95.65;100896.11;1716609;83;20885;-39
2021/07/14 04:06:27;;;;;;;10.10;5.00;;;;;;;21.16;92.82;100897.41;1716731;83;20992;-39
2021/07/14 04:09:26;;;;;;;13.35;5.10;;;;;;;21.49;90.54;100892.47;1716625;83;20971;-39
2021/07/14 04:11:59;;;;;;;7.62;4.62;;;;;;;21.77;87.29;100897.95;1716606;83;20967;-39
2021/07/14 04:14:28;;;;;;;13.62;4.80;;;;;;;22.06;85.23;100895.37;1716829;83;20944;-39
2021/07/14 04:16:57;;;;;;;18.02;4.33;;;;;;;22.32;83.19;100896.41;1716611;82;20992;-39
2021/07/14 04:19:26;;;;;;;12.65;4.87;;;;;;;22.61;81.96;100899.55;1716749;83;20939;-39
2021/07/14 04:21:52;;;;;;;8.48;4.10;;;;;;;22.86;79.87;100899.33;1716724;83;21015;-39
2021/07/14 04:24:19;;;;;;;12.45;4.37;;;;;;;23.06;78.97;100902.00;1716721;83;21093;-39
2021/07/14 04:26:47;;;;;;;7.75;4.12;;;;;;;23.27;78.58;100901.14;1716612;83;20968;-39
2021/07/14 04:29:14;;;;;;;10.28;4.00;;;;;;;23.50;77.49;100908.02;1716661;83;20984;-39
2021/07/14 04:31:43;;;;;;;12.80;3.75;;;;;;;23.78;76.48;100918.90;1716692;83;20948;-39
2021/07/14 04:34:10;;;;;;;14.00;4.28;;;;;;;23.97;74.51;100910.56;1716687;83;20904;-39
2021/07/14 04:36:37;;;;;;;12.15;3.80;;;;;;;24.22;73.48;100909.41;1716744;83;21054;-39
2021/07/14 04:39:05;;;;;;;12.10;4.05;;;;;;;24.45;71.00;100918.86;1716569;83;20925;-39
2021/07/14 04:41:32;;;;;;;9.63;4.03;;;;;;;24.67;69.72;100918.18;1716806;83;20976;-39
2021/07/14 04:44:01;;;;;;;19.35;4.08;;;;;;;24.91;68.79;100919.59;1716767;83;21040;-39
2021/07/14 04:46:29;;;;;;;9.75;3.50;;;;;;;25.16;67.89;100924.90;1716724;83;20889;-39
2021/07/14 04:48:56;;;;;;;14.23;4.10;;;;;;;25.37;68.50;100923.79;1715228;83;21136;-39
2021/07/14 04:51:23;;;;;;;11.85;3.58;;;;;;;25.60;66.39;100918.61;1706547;84;20893;-39
2021/07/14 04:53:50;;;;;;;13.22;3.22;;;;;;;25.78;66.08;100915.91;1706596;84;20980;-39
2021/07/14 04:56:16;;;;;;;13.50;3.35;;;;;;;26.01;65.86;100920.41;1706508;84;20937;-39
2021/07/14 04:58:46;;;;;;;15.80;3.95;;;;;;;26.24;65.08;100926.63;1706465;84;20893;-39
2021/07/14 05:01:13;;;;;;;10.50;3.92;;;;;;;26.49;64.94;100925.54;1705878;82;21153;-39
2021/07/14 05:03:45;;;;;;;12.33;3.60;;;;;;;26.77;63.66;100931.80;1706410;84;21019;-39
2021/07/14 05:06:15;;;;;;;18.32;3.65;;;;;;;27.00;62.82;100935.78;1706119;84;21553;-40
2021/07/14 05:08:42;;;;;;;7.65;3.50;;;;;;;27.23;62.55;100928.58;1705680;82;21004;-39
2021/07/14 05:11:08;;;;;;;20.97;3.75;;;;;;;27.44;61.71;100923.33;1706730;84;20924;-39
2021/07/14 05:13:36;;;;;;;18.15;3.70;;;;;;;27.60;58.66;100930.04;1706466;84;21137;-39
2021/07/14 05:16:03;;;;;;;18.10;3.70;;;;;;;27.79;54.99;100927.53;1706364;84;21000;-39
2021/07/14 05:18:33;;;;;;;15.60;3.42;;;;;;;27.96;55.65;100933.23;1706355;84;20941;-39
2021/07/14 05:21:00;;;;;;;17.95;4.05;;;;;;;28.15;53.88;100935.63;1706474;84;20988;-39
2021/07/14 05:23:27;;;;;;;13.88;3.60;;;;;;;28.31;51.72;100942.69;1706607;84;20897;-39
2021/07/14 05:25:53;;;;;;;16.37;3.40;;;;;;;28.41;52.04;100938.75;1706168;84;21032;-40
2021/07/14 05:28:21;;;;;;;19.77;3.75;;;;;;;28.54;53.20;100942.51;1706431;84;20937;-39
2021/07/14 05:30:48;;;;;;;14.90;3.65;;;;;;;28.67;51.48;100937.80;1706343;84;20984;-39
2021/07/14 05:33:15;;;;;;;11.78;3.20;;;;;;;28.82;51.50;100942.29;1706341;84;20953;-39
2021/07/14 05:35:41;;;;;;;16.10;3.02;;;;;;;28.94;51.52;100937.69;1706390;84;20885;-39
2021/07/14 05:38:08;;;;;;;15.70;2.70;;;;;;;29.12;50.00;100940.99;1706391;84;21149;-39
2021/07/14 05:40:35;;;;;;;9.20;2.92;;;;;;;29.31;49.25;100938.00;1706386;84;21466;-39
2021/07/14 05:43:01;;;;;;;10.63;2.80;;;;;;;29.50;48.20;100938.05;1706538;84;21572;-39
2021/07/14 05:45:28;;;;;;;10.93;2.33;;;;;;;29.67;46.21;100938.29;1706404;84;20939;-39
2021/07/14 05:47:54;;;;;;;11.03;2.95;;;;;;;29.85;46.53;100937.57;1706774;84;20941;-39
2021/07/14 05:50:21;;;;;;;14.10;3.10;;;;;;;29.99;46.63;100930.46;1714609;82;21774;-39
2021/07/14 05:52:47;;;;;;;15.80;3.33;;;;;;;30.14;45.08;100933.53;1720024;83;21039;-40
2021/07/14 05:55:14;;;;;;;22.93;3.12;;;;;;;30.31;45.90;100929.26;1719996;83;20987;-39
2021/07/14 05:57:42;;;;;;;12.33;3.25;;;;;;;30.52;45.42;100936.20;1720218;82;21514;-38
2021/07/14 06:00:10;;;;;;;15.68;3.25;;;;;;;30.62;44.85;100930.84;1720003;83;20833;-39
2021/07/14 06:02:36;;;;;;;23.18;3.20;;;;;;;30.70;45.80;100935.45;1719789;82;21812;-40
2021/07/14 06:05:05;;;;;;;12.37;3.20;;;;;;;30.79;44.58;100930.53;1719808;82;20968;-39
2021/07/14 06:07:32;;;;;;;9.43;2.70;;;;;;;30.87;43.79;100931.95;1719977;83;20984;-38
2021/07/14 06:09:58;;;;;;;14.70;3.47;;;;;;;30.97;42.29;100927.88;1719983;82;20948;-39
2021/07/14 06:12:25;;;;;;;12.45;2.87;;;;;;;31.03;43.19;100935.28;1720011;83;21003;-39
2021/07/14 06:14:52;;;;;;;20.55;3.67;;;;;;;31.07;43.68;100938.50;1719943;83;21141;-39
2021/07/14 06:17:18;;;;;;;12.10;2.67;;;;;;;31.07;44.61;100933.16;1719923;83;20928;-39
2021/07/14 06:19:45;;;;;;;8.65;2.87;;;;;;;31.08;42.29;100932.16;1719956;83;20901;-39
2021/07/14 06:22:15;;;;;;;8.58;3.08;;;;;;;31.05;43.50;100931.14;1719949;83;21015;-39
2021/07/14 06:24:43;;;;;;;11.57;3.00;;;;;;;30.98;43.61;100938.09;1719970;83;21477;-39
2021/07/14 06:27:12;;;;;;;12.95;2.83;;;;;;;30.93;42.89;100934.00;1719851;83;21037;-39
2021/07/14 06:29:39;;;;;;;13.10;2.80;;;;;;;30.89;43.40;100935.30;1719863;83;20913;-39
2021/07/14 06:32:07;;;;;;;16.42;3.00;;;;;;;30.90;41.67;100939.66;1719889;83;21500;-39
2021/07/14 06:34:33;;;;;;;15.28;2.62;;;;;;;30.98;42.35;100935.41;1719958;83;21486;-39
2021/07/14 06:37:00;;;;;;;16.37;2.02;;;;;;;31.10;41.92;100935.52;1719967;83;20921;-39
2021/07/14 06:39:26;;;;;;;13.65;2.62;;;;;;;31.18;41.40;100933.43;1719989;83;21146;-39
2021/07/14 06:41:54;;;;;;;10.35;2.70;;;;;;;31.19;40.68;100934.63;1719818;83;21530;-39
2021/07/14 06:44:20;;;;;;;19.57;3.20;;;;;;;31.21;40.68;100928.66;1719989;83;21497;-39
2021/07/14 06:46:47;;;;;;;16.30;2.75;;;;;;;31.27;41.00;100929.86;1719891;83;21426;-39
2021/07/14 06:49:14;;;;;;;17.02;2.72;;;;;;;31.30;41.01;100928.73;1719920;83;20966;-39
2021/07/14 06:51:41;;;;;;;12.30;3.08;;;;;;;31.33;40.19;100929.27;1706391;84;22069;-39
2021/07/14 06:54:08;;;;;;;18.50;3.80;;;;;;;31.40;40.44;100928.14;1706237;84;21490;-39
2021/07/14 06:56:36;;;;;;;22.42;3.08;;;;;;;31.48;41.17;100927.38;1706496;84;21573;-39
2021/07/14 06:59:02;;;;;;;21.87;3.00;;;;;;;31.58;39.64;100924.13;1706408;84;20952;-39
2021/07/14 07:01:29;;;;;;;16.32;3.10;;;;;;;31.62;40.25;100927.31;1706350;84;21566;-39
2021/07/14 07:05:41;;;;;;;17.07;3.40;;;;;;;31.61;38.86;100930.98;1782293;79;23265;-39
2021/07/14 07:08:09;;;;;;;17.95;2.77;;;;;;;31.54;38.91;100929.42;1749987;82;21477;-39
2021/07/14 07:10:35;;;;;;;11.43;3.05;;;;;;;31.59;38.32;100930.30;1720185;82;21109;-39
2021/07/14 07:13:02;;;;;;;16.25;3.17;;;;;;;31.56;37.85;100932.77;1749606;82;20880;-39
2021/07/14 07:15:28;;;;;;;17.32;3.25;;;;;;;31.50;38.11;100933.41;1749761;81;20979;-39
2021/07/14 07:17:54;;;;;;;15.58;3.30;;;;;;;31.57;38.91;100935.79;1750106;82;20972;-39
2021/07/14 07:20:22;;;;;;;10.28;3.12;;;;;;;31.68;39.20;100929.35;1749596;82;21360;-40
2021/07/14 07:22:49;;;;;;;22.48;2.90;;;;;;;31.79;38.60;100929.63;1749659;81;21050;-39
2021/07/14 07:25:16;;;;;;;22.75;3.37;;;;;;;31.88;38.76;100928.70;1749703;82;20967;-39
2021/07/14 07:27:43;;;;;;;18.60;3.47;;;;;;;31.99;39.54;100923.59;1749619;82;20983;-39
2021/07/14 07:30:11;;;;;;;14.20;3.33;;;;;;;32.09;38.13;100921.63;1749493;80;20937;-39
2021/07/14 07:32:37;;;;;;;18.60;3.30;;;;;;;32.22;37.75;100923.05;1749675;82;20972;-39
2021/07/14 07:35:05;;;;;;;15.32;2.87;;;;;;;32.29;37.77;100925.41;1749627;81;22295;-39
2021/07/14 07:37:32;;;;;;;21.45;2.95;;;;;;;32.37;37.27;100924.66;1749507;82;20845;-40
2021/07/14 07:40:00;;;;;;;19.95;2.80;;;;;;;32.49;37.49;100921.19;1749691;82;20921;-39
2021/07/14 07:42:26;;;;;;;19.48;3.05;;;;;;;32.65;36.30;100923.08;1749591;82;21490;-39
2021/07/14 07:44:54;;;;;;;8.13;2.60;;;;;;;32.82;35.07;100918.59;1749811;82;21537;-39
2021/07/14 07:47:20;;;;;;;26.75;3.33;;;;;;;32.95;34.34;100916.30;1749564;80;21114;-40
2021/07/14 07:49:47;;;;;;;11.10;2.85;;;;;;;33.11;35.24;100915.98;1749574;82;21003;-40
2021/07/14 07:52:14;;;;;;;12.10;2.72;;;;;;;33.04;35.67;100921.16;1720548;82;20932;-40
2021/07/14 07:54:41;;;;;;;12.88;3.22;;;;;;;33.07;36.01;100922.17;1749563;81;20985;-40
2021/07/14 07:57:08;;;;;;;15.18;3.00;;;;;;;33.14;35.79;100918.85;1749609;82;20929;-39
2021/07/14 07:59:35;;;;;;;13.25;2.37;;;;;;;33.27;35.40;100915.16;1749916;82;21135;-39
2021/07/14 08:02:03;;;;;;;14.33;3.00;;;;;;;33.46;35.37;100907.81;1749631;82;20963;-38
2021/07/14 08:04:30;;;;;;;11.65;2.55;;;;;;;33.59;36.21;100909.98;1723779;81;20916;-40
2021/07/14 08:06:56;;;;;;;13.30;2.90;;;;;;;33.76;35.40;100910.80;1758369;81;20925;-39
2021/07/14 08:09:23;;;;;;;5.97;2.22;;;;;;;33.89;35.04;100912.95;1758241;80;20944;-39
2021/07/14 08:11:51;;;;;;;10.85;2.40;;;;;;;34.06;34.66;100918.64;1758134;81;21238;-39
2021/07/14 08:14:19;;;;;;;14.78;2.55;;;;;;;34.16;34.60;100909.54;1758160;81;21007;-40
2021/07/14 08:16:46;;;;;;;10.98;2.70;;;;;;;34.32;34.85;100910.83;1753252;81;20995;-40
2021/07/14 08:19:13;;;;;;;10.70;2.55;;;;;;;34.39;34.63;100910.97;1700087;83;21062;-40
2021/07/14 08:21:40;;;;;;;8.40;2.60;;;;;;;34.32;36.21;100909.48;1746414;81;20929;-39
2021/07/14 08:24:08;;;;;;;11.60;2.60;;;;;;;34.25;34.18;100900.47;1756080;81;21928;-40
2021/07/14 08:26:34;;;;;;;12.70;2.58;;;;;;;34.28;35.97;100906.83;1742277;81;21042;-40
2021/07/14 08:29:01;;;;;;;5.85;2.37;;;;;;;34.29;34.56;100904.47;1752758;81;20963;-39
2021/07/14 08:31:30;;;;;;;8.20;2.47;;;;;;;34.25;35.34;100901.80;1743021;81;20987;-40
2021/07/14 08:33:57;;;;;;;15.55;2.08;;;;;;;34.34;32.60;100902.09;1728810;81;20939;-40
2021/07/14 08:36:24;;;;;;;11.60;2.02;;;;;;;34.39;32.93;100898.89;1727267;83;21780;-40
2021/07/14 08:38:52;;;;;;;6.92;2.08;;;;;;;34.40;31.61;100901.91;1734090;81;20908;-40
2021/07/14 08:41:20;;;;;;;14.43;2.52;;;;;;;34.52;33.82;100901.03;1739150;80;21120;-40
2021/07/14 08:43:49;;;;;;;7.58;2.10;;;;;;;34.65;34.93;100891.06;1755786;81;21028;-40
2021/07/14 08:46:16;;;;;;;7.67;2.12;;;;;;;34.78;34.15;100895.33;1737803;80;20991;-40
2021/07/14 08:48:44;;;;;;;11.05;1.87;;;;;;;34.88;35.40;100899.65;1738571;81;21117;-40
2021/07/14 08:51:13;;;;;;;7.72;2.30;;;;;;;34.91;32.54;100900.11;1700141;83;20952;-40
2021/07/14 08:53:40;;;;;;;13.60;2.40;;;;;;;34.92;33.38;100902.30;1746359;81;21019;-39
2021/07/14 08:56:07;;;;;;;8.93;2.08;;;;;;;34.97;32.51;100903.94;1741724;81;21018;-39
2021/07/14 08:58:33;;;;;;;7.10;2.25;;;;;;;35.03;32.56;100899.73;1717872;83;20951;-39
2021/07/14 09:01:02;;;;;;;14.63;2.87;;;;;;;35.09;31.78;100897.67;1746548;81;20990;-39
2021/07/14 09:03:30;;;;;;;10.98;2.30;;;;;;;35.04;33.10;100897.38;1757414;81;20983;-39
2021/07/14 09:05:57;;;;;;;7.42;2.10;;;;;;;35.07;33.63;100899.70;1716053;82;21023;-40
2021/07/14 09:08:23;;;;;;;7.10;2.37;;;;;;;35.14;32.70;100907.38;1722543;81;20989;-40
2021/07/14 09:10:53;;;;;;;13.03;2.50;;;;;;;35.13;33.68;100898.98;1717732;82;21002;-40
2021/07/14 09:13:31;;;;;;;6.58;2.10;;;;;;;35.18;34.14;100893.06;1707353;82;21023;-40
2021/07/14 09:15:57;;;;;;;5.62;2.00;;;;;;;35.28;33.19;100895.51;1720971;82;20964;-40
2021/07/14 09:18:27;;;;;;;7.80;1.80;;;;;;;35.43;33.81;100886.95;1739972;81;20944;-38
2021/07/14 09:20:55;;;;;;;12.50;1.98;;;;;;;35.55;29.91;100889.23;1730213;82;20987;-39
2021/07/14 09:23:25;;;;;;;3.85;1.62;;;;;;;35.65;30.90;100891.14;1716168;83;20889;-40
2021/07/14 09:26:02;;;;;;;7.67;2.10;;;;;;;35.75;30.75;100888.18;1716211;82;21153;-40
2021/07/14 09:28:37;;;;;;;9.45;1.90;;;;;;;35.73;30.51;100892.92;1716406;82;21498;-39
2021/07/14 09:31:08;;;;;;;6.25;1.95;;;;;;;35.72;31.30;100885.86;1742305;82;21466;-39
2021/07/14 09:33:38;;;;;;;5.42;2.02;;;;;;;35.74;30.72;100885.98;1726003;81;20949;-39
2021/07/14 09:36:06;;;;;;;4.47;1.37;;;;;;;35.60;30.15;100884.95;1688945;82;20979;-40
2021/07/14 09:38:35;;;;;;;9.43;0.90;;;;;;;35.51;28.58;100884.23;1717902;82;21083;-40
2021/07/14 09:41:08;;;;;;;4.30;0.85;;;;;;;35.44;24.51;100886.45;1716130;83;20941;-40
2021/07/14 09:43:43;;;;;;;4.75;1.30;;;;;;;35.30;25.40;100880.84;1715692;82;21051;-40
2021/07/14 09:46:12;;;;;;;2.30;1.72;;;;;;;35.27;30.03;100890.63;1716484;82;20936;-40
2021/07/14 09:48:46;;;;;;;4.08;1.90;;;;;;;35.41;29.34;100885.47;1716429;82;21493;-40
2021/07/14 09:51:23;;;;;;;4.60;1.50;;;;;;;35.55;29.80;100881.16;1710189;84;21206;-39
2021/07/14 09:53:52;;;;;;;10.43;1.50;;;;;;;35.63;28.79;100883.77;1717079;82;20983;-40
2021/07/14 09:56:22;;;;;;;7.90;1.80;;;;;;;35.57;29.37;100883.98;1723241;82;22304;-39
2021/07/14 09:59:06;;;;;;;5.85;1.70;;;;;;;35.42;30.66;100887.14;1716336;82;20924;-39
2021/07/14 10:01:43;;;;;;;5.47;1.47;;;;;;;35.33;29.34;100895.27;1681299;84;21001;-39
2021/07/14 10:04:09;;;;;;;;;;;;;;;35.28;28.33;100896.85;1652933;85;21060;-40
2021/07/14 10:06:36;;;;;;;8.33;1.67;;;;;;;35.26;27.88;100897.02;1643863;86;20197;-39
2021/07/14 10:09:03;;;;;;;7.83;1.80;;;;;;;35.21;29.22;100904.28;1687089;84;21538;-39
2021/07/14 10:11:33;;;;;;;7.55;1.98;;;;;;;35.19;29.41;100900.12;1694704;84;21723;-39
2021/07/14 10:14:02;;;;;;;9.83;1.82;;;;;;;35.26;28.94;100897.55;1694424;84;21000;-39
2021/07/14 10:16:31;;;;;;;10.00;1.80;;;;;;;35.33;28.94;100895.27;1694819;84;21182;-40
2021/07/14 10:19:08;;;;;;;18.20;2.45;;;;;;;35.33;28.47;100889.89;1677031;84;21495;-40
2021/07/14 10:21:42;;;;;;;28.10;2.90;;;;;;;35.24;29.38;100895.02;1667643;84;21035;-40
2021/07/14 10:24:11;;;;;;;19.02;2.52;;;;;;;35.16;29.53;100898.61;1638608;86;21072;-40
2021/07/14 10:26:44;;;;;;;24.85;3.30;;;;;;;35.37;31.04;100895.75;1672455;84;21070;-40
2021/07/14 10:29:11;;;;;;;9.23;2.00;;;;;;;35.52;30.47;100895.31;1674680;83;21798;-40
2021/07/14 10:31:38;;;;;;;8.58;1.57;;;;;;;35.65;28.74;100897.38;1667565;86;21530;-40
2021/07/14 10:34:05;;;;;;;3.77;1.50;;;;;;;35.83;27.46;100890.77;1681288;84;21719;-38
2021/07/14 10:36:35;;;;;;;10.60;1.90;;;;;;;35.78;28.76;100898.08;1681808;84;21020;-39
2021/07/14 10:39:09;;;;;;;6.85;1.45;;;;;;;35.76;26.35;100897.44;1658348;84;20987;-40
2021/07/14 10:41:35;;;;;;;10.23;1.67;;;;;;;35.64;26.25;100898.39;1694262;84;21821;-40
2021/07/14 10:44:05;;;;;;;19.60;1.90;;;;;;;35.51;25.20;100891.45;1680977;84;21051;-40
2021/07/14 10:46:32;;;;;;;10.50;2.00;;;;;;;35.26;25.67;100895.67;1685670;84;21015;-40
2021/07/14 10:49:00;;;;;;;7.58;1.62;;;;;;;35.10;24.72;100893.44;1678145;84;21501;-40
2021/07/14 10:51:30;;;;;;;21.77;2.08;;;;;;;34.76;24.77;100889.81;1676219;84;21044;-40
2021/07/14 10:54:06;;;;;;;11.80;1.82;;;;;;;34.75;26.22;100893.52;1685190;83;21779;-40
2021/07/14 10:56:36;;;;;;;8.10;1.75;;;;;;;34.88;28.08;100886.20;1694392;84;21545;-40
2021/07/14 10:59:04;;;;;;;21.48;1.95;;;;;;;35.14;26.72;100883.17;1677814;84;20975;-40
2021/07/14 11:01:46;;;;;;;8.15;1.60;;;;;;;35.22;25.65;100889.81;1674808;84;22442;-40
2021/07/14 11:04:21;;;;;;;5.47;1.30;;;;;;;35.16;25.35;100889.72;1686686;84;21469;-39
2021/07/14 11:06:59;;;;;;;8.43;1.52;;;;;;;35.14;26.23;100883.17;1700900;83;21142;-40
2021/07/14 11:09:50;;;;;;;25.50;2.80;;;;;;;35.20;26.57;100883.78;1688426;83;20969;-40
2021/07/14 11:12:29;;;;;;;3.02;1.17;;;;;;;35.29;24.30;100877.01;1692815;83;21014;-43
2021/07/14 11:15:00;;;;;;;10.35;1.47;;;;;;;35.22;23.28;100883.09;1707381;83;20982;-39
2021/07/14 11:17:30;;;;;;;16.52;2.55;;;;;;;35.07;25.65;100885.73;1699121;83;21686;-39
2021/07/14 11:20:12;;;;;;;24.35;2.75;;;;;;;35.08;26.43;100885.24;1682628;85;21746;-39
2021/07/14 11:22:44;;;;;;;32.50;3.42;;;;;;;35.17;26.52;100879.30;1660843;83;21025;-40
2021/07/14 11:25:23;;;;;;;3.58;1.10;;;;;;;35.28;28.25;100884.75;1703372;83;20986;-40
2021/07/14 11:28:08;;;;;;;5.37;1.35;;;;;;;35.35;25.35;100874.92;1699641;83;21752;-40
2021/07/14 11:30:41;;;;;;;6.67;1.10;;;;;;;35.48;26.69;100875.12;1695662;83;21037;-40
2021/07/14 11:33:08;;;;;;;3.20;1.40;;;;;;;35.44;25.41;100869.78;1691793;83;21149;-41
2021/07/14 11:35:49;;;;;;;21.87;1.85;;;;;;;35.34;25.94;100865.19;1672329;85;21051;-40